Airfield :







YOU CAN JOIN US ON...

 
LOGIN :

Register | Disclaimer

   EN    FR    IT 

 









Legend :    VFR   Marginal VFR   IFR   Intensive IFR   Very Intensive IFR
Visi :
Ceiling :
>= 8 km
>= 3000ft
5 to 8 km
1000 to 3000 ft
1500m to 5 km
500 to 1000 ft
800 to 1500m
200 to 500 ft
< 800m
< 200 ft
Symbols :   Thunderstorms  Fog  Heavy snow  Heavy precipitations  Wind > 20 kt






- Airport Elevation : 193 ft
- IATA code : ZBF


CZBF - Bathurst

CURRENT METAR :
  • 191700Z AUTO 28010G17KT 9SM FEW031 24/16 A2977 RMK SLP084 DENSITY ALT 1500FT

EXPIRED METARs :
  • 191600Z AUTO 28011G16KT 250V310 9SM SCT029 BKN036 22/16 A2978 RMK SLP086 DENSITY ALT 1300FT
  • 191504Z AUTO 29010G20KT 250V310 9SM OVC025 21/16 A2978 RMK SLP085 DENSITY ALT 1100FT

TAF TAF CZBF
Valid from the 19 at 14:00 until the 20 at 02:00 UTC


191340Z 1914/2002 26010KT P6SM BKN050
TEMPO 1914/1918 P6SM -SHRA BKN020
FM192200 29007KT P6SM BKN050
BECMG 2000/2002 FEW050 RMK FCST BASED ON AUTO OBS. NXT FCST BY 192000Z
CZQM FIR / North America



MET'MAP, your aeronautical weather chart ! - Copyright ORBIFLY December 2007 - Disclaimer

ORBIFLY MET'MAP TEAM :

Programming & Development : Alexandra Zaïnal
Original concept : Baudouin d'Aumeries
Technical & hardware support : Manuel Goepfert
Assistance : Marc-Olivier Méhu




SOURCES & CREDITS :

   NOAA